sensor_id;sensor_type;location;lat;lon;timestamp;P1;durP1;ratioP1;P2;durP2;ratioP2
80985;SDS011;70451;51.226;6.412;2023-07-28T00:01:13;4.68;;;2.35;;
80985;SDS011;70451;51.226;6.412;2023-07-28T00:03:28;4.72;;;2.33;;
80985;SDS011;70451;51.226;6.412;2023-07-28T00:05:43;4.03;;;2.25;;
80985;SDS011;70451;51.226;6.412;2023-07-28T00:07:59;3.13;;;2.00;;
80985;SDS011;70451;51.226;6.412;2023-07-28T00:10:14;4.68;;;2.15;;
80985;SDS011;70451;51.226;6.412;2023-07-28T00:12:29;3.20;;;2.10;;
80985;SDS011;70451;51.226;6.412;2023-07-28T00:14:45;3.65;;;2.00;;
80985;SDS011;70451;51.226;6.412;2023-07-28T00:17:00;5.97;;;2.15;;
80985;SDS011;70451;51.226;6.412;2023-07-28T00:19:15;3.58;;;1.90;;
80985;SDS011;70451;51.226;6.412;2023-07-28T00:21:31;4.10;;;2.40;;
80985;SDS011;70451;51.226;6.412;2023-07-28T00:23:46;4.22;;;2.15;;
80985;SDS011;70451;51.226;6.412;2023-07-28T00:26:01;4.25;;;1.95;;
80985;SDS011;70451;51.226;6.412;2023-07-28T00:28:17;3.85;;;1.75;;
80985;SDS011;70451;51.226;6.412;2023-07-28T00:30:32;5.53;;;2.25;;
80985;SDS011;70451;51.226;6.412;2023-07-28T00:32:47;4.03;;;2.38;;
80985;SDS011;70451;51.226;6.412;2023-07-28T00:35:03;3.10;;;2.05;;
80985;SDS011;70451;51.226;6.412;2023-07-28T00:37:18;4.82;;;2.10;;
80985;SDS011;70451;51.226;6.412;2023-07-28T00:39:34;4.55;;;2.05;;
80985;SDS011;70451;51.226;6.412;2023-07-28T00:41:49;5.15;;;2.45;;
80985;SDS011;70451;51.226;6.412;2023-07-28T00:44:04;4.60;;;2.47;;
80985;SDS011;70451;51.226;6.412;2023-07-28T00:46:19;4.55;;;2.30;;
80985;SDS011;70451;51.226;6.412;2023-07-28T00:48:35;5.03;;;2.22;;
80985;SDS011;70451;51.226;6.412;2023-07-28T00:50:51;4.68;;;2.25;;
80985;SDS011;70451;51.226;6.412;2023-07-28T00:53:09;3.38;;;2.22;;
80985;SDS011;70451;51.226;6.412;2023-07-28T00:55:24;3.67;;;2.17;;
80985;SDS011;70451;51.226;6.412;2023-07-28T00:57:40;4.95;;;2.28;;
80985;SDS011;70451;51.226;6.412;2023-07-28T00:59:55;5.47;;;2.47;;
80985;SDS011;70451;51.226;6.412;2023-07-28T01:02:11;4.60;;;2.67;;
80985;SDS011;70451;51.226;6.412;2023-07-28T01:04:27;4.10;;;2.50;;
80985;SDS011;70451;51.226;6.412;2023-07-28T01:09:12;4.82;;;2.13;;
80985;SDS011;70451;51.226;6.412;2023-07-28T01:11:29;3.33;;;1.90;;
80985;SDS011;70451;51.226;6.412;2023-07-28T01:13:45;3.97;;;2.30;;
80985;SDS011;70451;51.226;6.412;2023-07-28T01:16:01;3.22;;;2.25;;
80985;SDS011;70451;51.226;6.412;2023-07-28T01:18:16;5.32;;;2.53;;
80985;SDS011;70451;51.226;6.412;2023-07-28T01:20:31;4.05;;;2.05;;
80985;SDS011;70451;51.226;6.412;2023-07-28T01:27:47;4.78;;;2.28;;
80985;SDS011;70451;51.226;6.412;2023-07-28T01:30:04;4.50;;;2.10;;
80985;SDS011;70451;51.226;6.412;2023-07-28T01:32:20;3.78;;;2.13;;
80985;SDS011;70451;51.226;6.412;2023-07-28T01:34:36;6.35;;;2.30;;
80985;SDS011;70451;51.226;6.412;2023-07-28T01:36:51;4.05;;;2.00;;
80985;SDS011;70451;51.226;6.412;2023-07-28T01:39:06;4.07;;;2.05;;
80985;SDS011;70451;51.226;6.412;2023-07-28T01:41:21;3.72;;;1.95;;
80985;SDS011;70451;51.226;6.412;2023-07-28T01:43:37;4.25;;;2.03;;
80985;SDS011;70451;51.226;6.412;2023-07-28T01:45:52;3.92;;;1.90;;
80985;SDS011;70451;51.226;6.412;2023-07-28T01:48:07;3.58;;;2.38;;
80985;SDS011;70451;51.226;6.412;2023-07-28T01:50:25;3.67;;;2.05;;
80985;SDS011;70451;51.226;6.412;2023-07-28T01:52:41;4.47;;;2.08;;
80985;SDS011;70451;51.226;6.412;2023-07-28T01:54:56;9.10;;;2.05;;
80985;SDS011;70451;51.226;6.412;2023-07-28T01:57:11;3.75;;;2.03;;
80985;SDS011;70451;51.226;6.412;2023-07-28T01:59:27;3.25;;;2.22;;
80985;SDS011;70451;51.226;6.412;2023-07-28T02:01:42;5.28;;;1.90;;
80985;SDS011;70451;51.226;6.412;2023-07-28T02:03:58;7.40;;;2.50;;
80985;SDS011;70451;51.226;6.412;2023-07-28T02:06:13;4.32;;;1.83;;
80985;SDS011;70451;51.226;6.412;2023-07-28T02:08:28;5.25;;;2.45;;
80985;SDS011;70451;51.226;6.412;2023-07-28T02:10:44;2.70;;;1.98;;
80985;SDS011;70451;51.226;6.412;2023-07-28T02:12:59;3.50;;;1.92;;
80985;SDS011;70451;51.226;6.412;2023-07-28T02:15:14;5.50;;;2.17;;
80985;SDS011;70451;51.226;6.412;2023-07-28T02:17:30;3.63;;;2.05;;
80985;SDS011;70451;51.226;6.412;2023-07-28T02:19:45;7.82;;;1.95;;
80985;SDS011;70451;51.226;6.412;2023-07-28T02:22:00;4.15;;;1.77;;
80985;SDS011;70451;51.226;6.412;2023-07-28T02:24:16;4.20;;;2.33;;
80985;SDS011;70451;51.226;6.412;2023-07-28T02:26:31;3.55;;;1.90;;
80985;SDS011;70451;51.226;6.412;2023-07-28T02:28:46;2.88;;;2.35;;
80985;SDS011;70451;51.226;6.412;2023-07-28T02:31:02;3.83;;;1.90;;
80985;SDS011;70451;51.226;6.412;2023-07-28T02:33:17;2.63;;;1.40;;
80985;SDS011;70451;51.226;6.412;2023-07-28T02:35:32;1.85;;;1.35;;
80985;SDS011;70451;51.226;6.412;2023-07-28T02:37:47;2.63;;;1.63;;
80985;SDS011;70451;51.226;6.412;2023-07-28T02:40:03;3.10;;;1.60;;
80985;SDS011;70451;51.226;6.412;2023-07-28T02:42:19;3.60;;;1.75;;
80985;SDS011;70451;51.226;6.412;2023-07-28T02:44:34;4.97;;;1.85;;
80985;SDS011;70451;51.226;6.412;2023-07-28T02:46:49;4.22;;;1.80;;
80985;SDS011;70451;51.226;6.412;2023-07-28T02:49:05;2.58;;;1.48;;
80985;SDS011;70451;51.226;6.412;2023-07-28T02:51:20;3.15;;;1.50;;
80985;SDS011;70451;51.226;6.412;2023-07-28T02:53:35;4.10;;;1.92;;
80985;SDS011;70451;51.226;6.412;2023-07-28T02:55:51;5.75;;;1.90;;
80985;SDS011;70451;51.226;6.412;2023-07-28T02:58:06;2.78;;;1.73;;
80985;SDS011;70451;51.226;6.412;2023-07-28T03:00:21;4.93;;;1.70;;
80985;SDS011;70451;51.226;6.412;2023-07-28T03:02:37;3.28;;;1.60;;
80985;SDS011;70451;51.226;6.412;2023-07-28T03:04:52;3.13;;;1.40;;
80985;SDS011;70451;51.226;6.412;2023-07-28T03:07:07;1.88;;;1.20;;
80985;SDS011;70451;51.226;6.412;2023-07-28T03:09:22;2.13;;;1.45;;
80985;SDS011;70451;51.226;6.412;2023-07-28T03:11:38;4.35;;;1.48;;
80985;SDS011;70451;51.226;6.412;2023-07-28T03:13:53;3.17;;;1.58;;
80985;SDS011;70451;51.226;6.412;2023-07-28T03:16:08;4.05;;;1.63;;
80985;SDS011;70451;51.226;6.412;2023-07-28T03:18:24;2.88;;;1.77;;
80985;SDS011;70451;51.226;6.412;2023-07-28T03:20:39;3.65;;;1.48;;
80985;SDS011;70451;51.226;6.412;2023-07-28T03:22:55;2.10;;;1.40;;
80985;SDS011;70451;51.226;6.412;2023-07-28T03:25:10;2.50;;;1.33;;
80985;SDS011;70451;51.226;6.412;2023-07-28T03:27:27;3.03;;;1.40;;
80985;SDS011;70451;51.226;6.412;2023-07-28T03:29:42;2.33;;;1.40;;
80985;SDS011;70451;51.226;6.412;2023-07-28T03:31:58;2.33;;;1.33;;
80985;SDS011;70451;51.226;6.412;2023-07-28T03:34:13;2.22;;;1.33;;
80985;SDS011;70451;51.226;6.412;2023-07-28T03:36:28;3.10;;;1.50;;
80985;SDS011;70451;51.226;6.412;2023-07-28T03:38:43;2.92;;;1.42;;
80985;SDS011;70451;51.226;6.412;2023-07-28T03:40:59;9.82;;;2.20;;
80985;SDS011;70451;51.226;6.412;2023-07-28T03:43:14;3.53;;;1.45;;
80985;SDS011;70451;51.226;6.412;2023-07-28T03:45:29;3.72;;;1.60;;
80985;SDS011;70451;51.226;6.412;2023-07-28T03:47:45;3.60;;;1.50;;
80985;SDS011;70451;51.226;6.412;2023-07-28T03:50:00;3.15;;;1.80;;
80985;SDS011;70451;51.226;6.412;2023-07-28T03:52:15;3.97;;;1.73;;
80985;SDS011;70451;51.226;6.412;2023-07-28T03:54:31;2.88;;;1.50;;
80985;SDS011;70451;51.226;6.412;2023-07-28T03:56:46;2.92;;;1.27;;
80985;SDS011;70451;51.226;6.412;2023-07-28T03:59:01;3.30;;;1.80;;
80985;SDS011;70451;51.226;6.412;2023-07-28T04:01:17;4.15;;;1.60;;
80985;SDS011;70451;51.226;6.412;2023-07-28T04:03:33;2.92;;;1.45;;
80985;SDS011;70451;51.226;6.412;2023-07-28T04:05:48;3.22;;;1.30;;
80985;SDS011;70451;51.226;6.412;2023-07-28T04:08:03;3.25;;;1.33;;
80985;SDS011;70451;51.226;6.412;2023-07-28T04:10:19;2.30;;;1.20;;
80985;SDS011;70451;51.226;6.412;2023-07-28T04:12:34;4.47;;;1.73;;
80985;SDS011;70451;51.226;6.412;2023-07-28T04:14:50;4.88;;;1.50;;
80985;SDS011;70451;51.226;6.412;2023-07-28T04:17:05;3.03;;;1.52;;
80985;SDS011;70451;51.226;6.412;2023-07-28T04:19:21;2.15;;;1.30;;
80985;SDS011;70451;51.226;6.412;2023-07-28T04:21:37;2.25;;;1.33;;
80985;SDS011;70451;51.226;6.412;2023-07-28T04:23:54;2.38;;;1.42;;
80985;SDS011;70451;51.226;6.412;2023-07-28T04:26:10;2.20;;;1.25;;
80985;SDS011;70451;51.226;6.412;2023-07-28T04:28:25;2.40;;;1.50;;
80985;SDS011;70451;51.226;6.412;2023-07-28T04:30:40;3.28;;;1.50;;
80985;SDS011;70451;51.226;6.412;2023-07-28T04:32:55;3.03;;;1.35;;
80985;SDS011;70451;51.226;6.412;2023-07-28T04:35:11;1.80;;;1.20;;
80985;SDS011;70451;51.226;6.412;2023-07-28T04:37:26;2.97;;;1.08;;
80985;SDS011;70451;51.226;6.412;2023-07-28T04:39:41;1.63;;;1.00;;
80985;SDS011;70451;51.226;6.412;2023-07-28T04:41:57;1.77;;;1.08;;
80985;SDS011;70451;51.226;6.412;2023-07-28T04:44:12;2.22;;;1.60;;
80985;SDS011;70451;51.226;6.412;2023-07-28T04:46:27;1.70;;;1.00;;
80985;SDS011;70451;51.226;6.412;2023-07-28T04:48:42;3.05;;;1.10;;
80985;SDS011;70451;51.226;6.412;2023-07-28T04:50:58;3.72;;;1.20;;
80985;SDS011;70451;51.226;6.412;2023-07-28T04:53:13;2.00;;;1.20;;
80985;SDS011;70451;51.226;6.412;2023-07-28T04:55:28;1.98;;;1.00;;
80985;SDS011;70451;51.226;6.412;2023-07-28T04:57:44;2.58;;;1.20;;
80985;SDS011;70451;51.226;6.412;2023-07-28T04:59:59;3.35;;;1.25;;
80985;SDS011;70451;51.226;6.412;2023-07-28T05:02:15;5.90;;;1.20;;
80985;SDS011;70451;51.226;6.412;2023-07-28T05:04:30;2.33;;;1.10;;
80985;SDS011;70451;51.226;6.412;2023-07-28T05:06:45;2.55;;;1.30;;
80985;SDS011;70451;51.226;6.412;2023-07-28T05:09:01;4.38;;;1.10;;
80985;SDS011;70451;51.226;6.412;2023-07-28T05:11:16;3.83;;;1.55;;
80985;SDS011;70451;51.226;6.412;2023-07-28T05:13:31;2.20;;;1.10;;
80985;SDS011;70451;51.226;6.412;2023-07-28T05:15:47;3.42;;;1.33;;
80985;SDS011;70451;51.226;6.412;2023-07-28T05:18:02;2.70;;;1.20;;
80985;SDS011;70451;51.226;6.412;2023-07-28T05:20:17;2.22;;;1.10;;
80985;SDS011;70451;51.226;6.412;2023-07-28T05:22:33;2.08;;;1.05;;
80985;SDS011;70451;51.226;6.412;2023-07-28T05:24:48;1.52;;;1.00;;
80985;SDS011;70451;51.226;6.412;2023-07-28T05:27:03;2.53;;;1.20;;
80985;SDS011;70451;51.226;6.412;2023-07-28T05:29:19;2.53;;;1.40;;
80985;SDS011;70451;51.226;6.412;2023-07-28T05:31:34;2.38;;;1.23;;
80985;SDS011;70451;51.226;6.412;2023-07-28T05:33:49;2.70;;;1.48;;
80985;SDS011;70451;51.226;6.412;2023-07-28T05:36:05;2.40;;;1.23;;
80985;SDS011;70451;51.226;6.412;2023-07-28T05:38:20;3.03;;;1.02;;
80985;SDS011;70451;51.226;6.412;2023-07-28T05:40:35;4.30;;;1.15;;
80985;SDS011;70451;51.226;6.412;2023-07-28T05:42:51;2.22;;;1.05;;
80985;SDS011;70451;51.226;6.412;2023-07-28T05:45:06;4.28;;;1.33;;
80985;SDS011;70451;51.226;6.412;2023-07-28T05:47:22;2.78;;;1.20;;
80985;SDS011;70451;51.226;6.412;2023-07-28T05:49:37;2.55;;;1.40;;
80985;SDS011;70451;51.226;6.412;2023-07-28T05:51:53;3.22;;;1.30;;
80985;SDS011;70451;51.226;6.412;2023-07-28T05:54:08;2.67;;;1.52;;
80985;SDS011;70451;51.226;6.412;2023-07-28T05:56:23;2.80;;;1.50;;
80985;SDS011;70451;51.226;6.412;2023-07-28T05:58:38;3.60;;;1.40;;
80985;SDS011;70451;51.226;6.412;2023-07-28T06:00:54;3.90;;;1.40;;
80985;SDS011;70451;51.226;6.412;2023-07-28T06:03:10;2.60;;;1.45;;
80985;SDS011;70451;51.226;6.412;2023-07-28T06:05:26;1.85;;;1.00;;
80985;SDS011;70451;51.226;6.412;2023-07-28T06:07:42;2.30;;;1.17;;
80985;SDS011;70451;51.226;6.412;2023-07-28T06:09:57;2.72;;;1.30;;
80985;SDS011;70451;51.226;6.412;2023-07-28T06:12:12;2.35;;;0.90;;
80985;SDS011;70451;51.226;6.412;2023-07-28T06:14:28;1.98;;;1.00;;
80985;SDS011;70451;51.226;6.412;2023-07-28T06:16:43;3.28;;;1.48;;
80985;SDS011;70451;51.226;6.412;2023-07-28T06:18:59;3.63;;;1.40;;
80985;SDS011;70451;51.226;6.412;2023-07-28T06:21:14;2.58;;;1.50;;
80985;SDS011;70451;51.226;6.412;2023-07-28T06:23:29;3.10;;;2.00;;
80985;SDS011;70451;51.226;6.412;2023-07-28T06:25:44;2.80;;;1.40;;
80985;SDS011;70451;51.226;6.412;2023-07-28T06:28:01;7.13;;;2.30;;
80985;SDS011;70451;51.226;6.412;2023-07-28T06:30:16;4.10;;;1.92;;
80985;SDS011;70451;51.226;6.412;2023-07-28T06:32:31;5.45;;;2.03;;
80985;SDS011;70451;51.226;6.412;2023-07-28T06:34:47;5.22;;;2.10;;
80985;SDS011;70451;51.226;6.412;2023-07-28T06:37:02;5.15;;;2.00;;
80985;SDS011;70451;51.226;6.412;2023-07-28T06:39:17;5.68;;;2.38;;
80985;SDS011;70451;51.226;6.412;2023-07-28T06:41:33;5.13;;;2.47;;
80985;SDS011;70451;51.226;6.412;2023-07-28T06:43:49;3.83;;;1.65;;
80985;SDS011;70451;51.226;6.412;2023-07-28T06:46:04;4.38;;;1.95;;
80985;SDS011;70451;51.226;6.412;2023-07-28T06:48:19;3.63;;;2.00;;
80985;SDS011;70451;51.226;6.412;2023-07-28T06:50:35;5.50;;;1.95;;
80985;SDS011;70451;51.226;6.412;2023-07-28T06:52:50;3.05;;;1.40;;
80985;SDS011;70451;51.226;6.412;2023-07-28T06:55:06;2.42;;;1.70;;
80985;SDS011;70451;51.226;6.412;2023-07-28T06:57:22;2.33;;;1.30;;
80985;SDS011;70451;51.226;6.412;2023-07-28T06:59:37;3.17;;;1.55;;
80985;SDS011;70451;51.226;6.412;2023-07-28T07:01:53;2.05;;;1.08;;
80985;SDS011;70451;51.226;6.412;2023-07-28T07:04:08;2.10;;;1.05;;
80985;SDS011;70451;51.226;6.412;2023-07-28T07:06:23;2.15;;;0.75;;
80985;SDS011;70451;51.226;6.412;2023-07-28T07:08:38;2.20;;;0.80;;
80985;SDS011;70451;51.226;6.412;2023-07-28T07:10:54;1.73;;;0.90;;
80985;SDS011;70451;51.226;6.412;2023-07-28T07:13:10;1.55;;;0.80;;
80985;SDS011;70451;51.226;6.412;2023-07-28T07:15:26;1.58;;;0.80;;
80985;SDS011;70451;51.226;6.412;2023-07-28T07:17:41;1.63;;;0.82;;
80985;SDS011;70451;51.226;6.412;2023-07-28T07:19:57;2.00;;;0.80;;
80985;SDS011;70451;51.226;6.412;2023-07-28T07:22:12;2.20;;;1.10;;
80985;SDS011;70451;51.226;6.412;2023-07-28T07:24:27;3.47;;;1.25;;
80985;SDS011;70451;51.226;6.412;2023-07-28T07:26:43;2.28;;;1.10;;
80985;SDS011;70451;51.226;6.412;2023-07-28T07:28:58;2.78;;;1.38;;
80985;SDS011;70451;51.226;6.412;2023-07-28T07:31:14;2.22;;;1.40;;
80985;SDS011;70451;51.226;6.412;2023-07-28T07:33:30;2.28;;;1.38;;
80985;SDS011;70451;51.226;6.412;2023-07-28T07:35:46;3.08;;;1.63;;
80985;SDS011;70451;51.226;6.412;2023-07-28T07:38:01;3.90;;;2.03;;
80985;SDS011;70451;51.226;6.412;2023-07-28T07:40:17;4.15;;;1.90;;
80985;SDS011;70451;51.226;6.412;2023-07-28T07:42:50;4.15;;;2.00;;
80985;SDS011;70451;51.226;6.412;2023-07-28T07:45:07;3.58;;;1.65;;
80985;SDS011;70451;51.226;6.412;2023-07-28T07:47:22;2.92;;;1.67;;
80985;SDS011;70451;51.226;6.412;2023-07-28T07:49:39;4.28;;;1.95;;
80985;SDS011;70451;51.226;6.412;2023-07-28T07:51:54;3.50;;;1.90;;
80985;SDS011;70451;51.226;6.412;2023-07-28T07:54:09;3.50;;;1.80;;
80985;SDS011;70451;51.226;6.412;2023-07-28T07:56:25;3.75;;;2.03;;
80985;SDS011;70451;51.226;6.412;2023-07-28T07:58:40;3.25;;;1.70;;
80985;SDS011;70451;51.226;6.412;2023-07-28T08:00:56;5.13;;;1.95;;
80985;SDS011;70451;51.226;6.412;2023-07-28T08:03:11;4.43;;;2.10;;
80985;SDS011;70451;51.226;6.412;2023-07-28T08:05:27;4.93;;;2.50;;
80985;SDS011;70451;51.226;6.412;2023-07-28T08:07:43;4.22;;;2.13;;
80985;SDS011;70451;51.226;6.412;2023-07-28T08:09:59;4.15;;;2.03;;
80985;SDS011;70451;51.226;6.412;2023-07-28T08:12:15;4.05;;;2.33;;
80985;SDS011;70451;51.226;6.412;2023-07-28T08:14:31;3.97;;;2.13;;
80985;SDS011;70451;51.226;6.412;2023-07-28T08:16:46;3.95;;;1.98;;
80985;SDS011;70451;51.226;6.412;2023-07-28T08:19:01;5.75;;;2.35;;
80985;SDS011;70451;51.226;6.412;2023-07-28T08:21:17;3.85;;;2.30;;
80985;SDS011;70451;51.226;6.412;2023-07-28T08:23:32;4.22;;;2.10;;
80985;SDS011;70451;51.226;6.412;2023-07-28T08:25:47;5.38;;;2.30;;
80985;SDS011;70451;51.226;6.412;2023-07-28T08:28:03;4.63;;;2.78;;
80985;SDS011;70451;51.226;6.412;2023-07-28T08:30:19;5.63;;;2.30;;
80985;SDS011;70451;51.226;6.412;2023-07-28T08:32:34;6.65;;;2.47;;
80985;SDS011;70451;51.226;6.412;2023-07-28T08:34:49;3.35;;;2.33;;
80985;SDS011;70451;51.226;6.412;2023-07-28T08:37:05;3.22;;;2.08;;
80985;SDS011;70451;51.226;6.412;2023-07-28T08:39:21;3.72;;;2.47;;
80985;SDS011;70451;51.226;6.412;2023-07-28T08:41:36;4.40;;;2.03;;
80985;SDS011;70451;51.226;6.412;2023-07-28T08:43:52;2.88;;;1.90;;
80985;SDS011;70451;51.226;6.412;2023-07-28T08:46:08;3.40;;;2.15;;
80985;SDS011;70451;51.226;6.412;2023-07-28T08:48:24;3.50;;;2.42;;
80985;SDS011;70451;51.226;6.412;2023-07-28T08:50:39;3.47;;;2.20;;
80985;SDS011;70451;51.226;6.412;2023-07-28T08:52:56;5.78;;;2.80;;
80985;SDS011;70451;51.226;6.412;2023-07-28T08:55:11;3.85;;;2.10;;
80985;SDS011;70451;51.226;6.412;2023-07-28T08:57:28;3.40;;;2.45;;
80985;SDS011;70451;51.226;6.412;2023-07-28T08:59:43;4.75;;;2.28;;
80985;SDS011;70451;51.226;6.412;2023-07-28T09:02:02;4.60;;;2.30;;
80985;SDS011;70451;51.226;6.412;2023-07-28T09:04:20;3.83;;;2.25;;
80985;SDS011;70451;51.226;6.412;2023-07-28T09:06:36;4.65;;;2.30;;
80985;SDS011;70451;51.226;6.412;2023-07-28T09:08:51;4.15;;;2.33;;
80985;SDS011;70451;51.226;6.412;2023-07-28T09:11:06;5.43;;;2.15;;
80985;SDS011;70451;51.226;6.412;2023-07-28T09:13:22;2.97;;;1.98;;
80985;SDS011;70451;51.226;6.412;2023-07-28T09:15:37;2.67;;;1.95;;
80985;SDS011;70451;51.226;6.412;2023-07-28T09:17:53;2.45;;;1.83;;
80985;SDS011;70451;51.226;6.412;2023-07-28T09:20:09;3.63;;;2.13;;
80985;SDS011;70451;51.226;6.412;2023-07-28T09:22:29;2.30;;;1.70;;
80985;SDS011;70451;51.226;6.412;2023-07-28T09:24:44;2.85;;;2.10;;
80985;SDS011;70451;51.226;6.412;2023-07-28T09:27:01;2.10;;;1.50;;
80985;SDS011;70451;51.226;6.412;2023-07-28T09:29:17;2.65;;;1.83;;
80985;SDS011;70451;51.226;6.412;2023-07-28T09:31:34;2.50;;;2.00;;
80985;SDS011;70451;51.226;6.412;2023-07-28T09:33:49;3.60;;;1.80;;
80985;SDS011;70451;51.226;6.412;2023-07-28T09:36:08;2.70;;;1.77;;
80985;SDS011;70451;51.226;6.412;2023-07-28T09:38:25;1.80;;;1.60;;
80985;SDS011;70451;51.226;6.412;2023-07-28T09:40:43;3.05;;;1.65;;
80985;SDS011;70451;51.226;6.412;2023-07-28T09:42:58;2.42;;;1.80;;
80985;SDS011;70451;51.226;6.412;2023-07-28T09:45:13;1.52;;;1.33;;
80985;SDS011;70451;51.226;6.412;2023-07-28T09:47:29;3.08;;;1.70;;
80985;SDS011;70451;51.226;6.412;2023-07-28T09:49:46;2.40;;;1.60;;
80985;SDS011;70451;51.226;6.412;2023-07-28T09:52:04;2.22;;;1.83;;
80985;SDS011;70451;51.226;6.412;2023-07-28T09:54:24;2.83;;;1.80;;
80985;SDS011;70451;51.226;6.412;2023-07-28T09:56:44;2.78;;;1.48;;
80985;SDS011;70451;51.226;6.412;2023-07-28T09:59:02;2.33;;;1.65;;
80985;SDS011;70451;51.226;6.412;2023-07-28T10:01:25;2.65;;;1.65;;
80985;SDS011;70451;51.226;6.412;2023-07-28T10:03:41;4.47;;;1.65;;
80985;SDS011;70451;51.226;6.412;2023-07-28T10:05:57;2.20;;;1.90;;
80985;SDS011;70451;51.226;6.412;2023-07-28T10:08:13;1.90;;;1.55;;
80985;SDS011;70451;51.226;6.412;2023-07-28T10:10:29;1.60;;;1.23;;
80985;SDS011;70451;51.226;6.412;2023-07-28T10:12:48;2.13;;;1.35;;
80985;SDS011;70451;51.226;6.412;2023-07-28T10:15:05;1.85;;;1.40;;
80985;SDS011;70451;51.226;6.412;2023-07-28T10:17:20;2.17;;;1.30;;
80985;SDS011;70451;51.226;6.412;2023-07-28T10:19:46;1.92;;;1.13;;
80985;SDS011;70451;51.226;6.412;2023-07-28T10:22:02;1.50;;;1.20;;
80985;SDS011;70451;51.226;6.412;2023-07-28T10:24:22;1.38;;;1.20;;
80985;SDS011;70451;51.226;6.412;2023-07-28T10:27:36;1.73;;;1.30;;
80985;SDS011;70451;51.226;6.412;2023-07-28T10:30:01;2.05;;;1.15;;
80985;SDS011;70451;51.226;6.412;2023-07-28T10:32:25;3.05;;;1.10;;
80985;SDS011;70451;51.226;6.412;2023-07-28T10:34:45;1.80;;;1.10;;
80985;SDS011;70451;51.226;6.412;2023-07-28T10:37:14;1.52;;;0.95;;
80985;SDS011;70451;51.226;6.412;2023-07-28T10:39:29;1.45;;;0.90;;
80985;SDS011;70451;51.226;6.412;2023-07-28T10:42:03;1.40;;;1.10;;
80985;SDS011;70451;51.226;6.412;2023-07-28T10:44:25;1.83;;;1.08;;
80985;SDS011;70451;51.226;6.412;2023-07-28T10:46:40;1.35;;;1.05;;
80985;SDS011;70451;51.226;6.412;2023-07-28T10:48:56;1.17;;;1.00;;
80985;SDS011;70451;51.226;6.412;2023-07-28T10:51:11;2.05;;;1.00;;
80985;SDS011;70451;51.226;6.412;2023-07-28T10:53:34;1.70;;;1.15;;
80985;SDS011;70451;51.226;6.412;2023-07-28T10:55:49;3.17;;;1.13;;
80985;SDS011;70451;51.226;6.412;2023-07-28T10:58:05;1.92;;;1.10;;
80985;SDS011;70451;51.226;6.412;2023-07-28T11:00:21;1.92;;;1.13;;
80985;SDS011;70451;51.226;6.412;2023-07-28T11:04:59;1.35;;;1.13;;
80985;SDS011;70451;51.226;6.412;2023-07-28T11:07:14;1.70;;;0.95;;
80985;SDS011;70451;51.226;6.412;2023-07-28T11:09:30;2.55;;;1.20;;
80985;SDS011;70451;51.226;6.412;2023-07-28T11:11:45;1.70;;;0.90;;
80985;SDS011;70451;51.226;6.412;2023-07-28T11:14:01;3.33;;;1.45;;
80985;SDS011;70451;51.226;6.412;2023-07-28T11:16:18;1.70;;;1.30;;
80985;SDS011;70451;51.226;6.412;2023-07-28T11:18:34;1.33;;;1.23;;
80985;SDS011;70451;51.226;6.412;2023-07-28T11:20:50;2.30;;;1.45;;
80985;SDS011;70451;51.226;6.412;2023-07-28T11:23:05;2.85;;;1.45;;
80985;SDS011;70451;51.226;6.412;2023-07-28T11:25:21;2.50;;;1.25;;
80985;SDS011;70451;51.226;6.412;2023-07-28T11:27:37;2.60;;;1.20;;
80985;SDS011;70451;51.226;6.412;2023-07-28T11:29:53;2.08;;;1.00;;
80985;SDS011;70451;51.226;6.412;2023-07-28T11:32:09;1.30;;;1.00;;
80985;SDS011;70451;51.226;6.412;2023-07-28T11:34:25;1.08;;;0.95;;
80985;SDS011;70451;51.226;6.412;2023-07-28T11:36:40;1.50;;;0.77;;
80985;SDS011;70451;51.226;6.412;2023-07-28T11:38:57;0.90;;;0.68;;
80985;SDS011;70451;51.226;6.412;2023-07-28T11:41:14;1.42;;;1.00;;
80985;SDS011;70451;51.226;6.412;2023-07-28T11:43:30;2.47;;;1.10;;
80985;SDS011;70451;51.226;6.412;2023-07-28T11:45:46;1.20;;;0.98;;
80985;SDS011;70451;51.226;6.412;2023-07-28T11:48:03;1.52;;;0.93;;
80985;SDS011;70451;51.226;6.412;2023-07-28T11:50:28;1.75;;;0.80;;
80985;SDS011;70451;51.226;6.412;2023-07-28T11:52:45;1.25;;;0.70;;
80985;SDS011;70451;51.226;6.412;2023-07-28T11:55:01;1.08;;;0.80;;
80985;SDS011;70451;51.226;6.412;2023-07-28T11:57:21;1.20;;;0.80;;
80985;SDS011;70451;51.226;6.412;2023-07-28T11:59:36;0.77;;;0.60;;
80985;SDS011;70451;51.226;6.412;2023-07-28T12:04:19;0.90;;;0.60;;
80985;SDS011;70451;51.226;6.412;2023-07-28T12:07:30;0.90;;;0.80;;
80985;SDS011;70451;51.226;6.412;2023-07-28T12:09:26;1.05;;;0.70;;
80985;SDS011;70451;51.226;6.412;2023-07-28T12:11:44;0.95;;;0.75;;
80985;SDS011;70451;51.226;6.412;2023-07-28T12:14:00;1.23;;;0.80;;
80985;SDS011;70451;51.226;6.412;2023-07-28T12:19:02;0.80;;;0.60;;
80985;SDS011;70451;51.226;6.412;2023-07-28T12:21:19;1.42;;;0.63;;
80985;SDS011;70451;51.226;6.412;2023-07-28T12:23:35;0.57;;;0.50;;
80985;SDS011;70451;51.226;6.412;2023-07-28T12:25:50;0.65;;;0.60;;
80985;SDS011;70451;51.226;6.412;2023-07-28T12:28:06;1.80;;;0.75;;
80985;SDS011;70451;51.226;6.412;2023-07-28T12:30:21;0.88;;;0.70;;
80985;SDS011;70451;51.226;6.412;2023-07-28T12:32:36;1.52;;;0.70;;
80985;SDS011;70451;51.226;6.412;2023-07-28T12:34:52;1.88;;;0.70;;
80985;SDS011;70451;51.226;6.412;2023-07-28T12:37:08;1.60;;;0.70;;
80985;SDS011;70451;51.226;6.412;2023-07-28T12:39:23;3.40;;;0.90;;
80985;SDS011;70451;51.226;6.412;2023-07-28T12:41:38;1.00;;;0.75;;
80985;SDS011;70451;51.226;6.412;2023-07-28T12:43:54;2.53;;;1.00;;
80985;SDS011;70451;51.226;6.412;2023-07-28T12:46:09;3.17;;;0.75;;
80985;SDS011;70451;51.226;6.412;2023-07-28T12:48:24;0.93;;;0.80;;
80985;SDS011;70451;51.226;6.412;2023-07-28T12:50:40;1.80;;;1.23;;
80985;SDS011;70451;51.226;6.412;2023-07-28T12:52:55;1.20;;;0.80;;
80985;SDS011;70451;51.226;6.412;2023-07-28T12:55:10;1.15;;;1.05;;
80985;SDS011;70451;51.226;6.412;2023-07-28T12:57:26;4.43;;;1.55;;
80985;SDS011;70451;51.226;6.412;2023-07-28T12:59:41;1.63;;;1.10;;
80985;SDS011;70451;51.226;6.412;2023-07-28T13:01:56;1.77;;;0.98;;
80985;SDS011;70451;51.226;6.412;2023-07-28T13:04:12;1.00;;;0.80;;
80985;SDS011;70451;51.226;6.412;2023-07-28T13:06:27;1.90;;;1.00;;
80985;SDS011;70451;51.226;6.412;2023-07-28T13:08:42;1.30;;;0.85;;
80985;SDS011;70451;51.226;6.412;2023-07-28T13:10:57;1.38;;;1.10;;
80985;SDS011;70451;51.226;6.412;2023-07-28T13:13:13;1.35;;;0.90;;
80985;SDS011;70451;51.226;6.412;2023-07-28T13:15:28;1.35;;;0.85;;
80985;SDS011;70451;51.226;6.412;2023-07-28T13:17:43;1.02;;;0.93;;
80985;SDS011;70451;51.226;6.412;2023-07-28T13:19:59;0.95;;;0.80;;
80985;SDS011;70451;51.226;6.412;2023-07-28T13:22:14;3.28;;;1.02;;
80985;SDS011;70451;51.226;6.412;2023-07-28T13:24:30;2.13;;;0.80;;
80985;SDS011;70451;51.226;6.412;2023-07-28T13:26:45;1.02;;;0.80;;
80985;SDS011;70451;51.226;6.412;2023-07-28T13:29:00;1.52;;;1.00;;
80985;SDS011;70451;51.226;6.412;2023-07-28T13:31:17;1.40;;;0.93;;
80985;SDS011;70451;51.226;6.412;2023-07-28T13:33:33;1.25;;;0.90;;
80985;SDS011;70451;51.226;6.412;2023-07-28T13:35:48;1.45;;;1.00;;
80985;SDS011;70451;51.226;6.412;2023-07-28T13:38:04;1.30;;;1.10;;
80985;SDS011;70451;51.226;6.412;2023-07-28T13:40:19;2.72;;;0.95;;
80985;SDS011;70451;51.226;6.412;2023-07-28T13:42:34;1.95;;;1.15;;
80985;SDS011;70451;51.226;6.412;2023-07-28T13:44:50;1.73;;;1.00;;
80985;SDS011;70451;51.226;6.412;2023-07-28T13:47:05;2.33;;;0.90;;
80985;SDS011;70451;51.226;6.412;2023-07-28T13:49:20;1.13;;;0.98;;
80985;SDS011;70451;51.226;6.412;2023-07-28T13:51:36;0.95;;;0.85;;
80985;SDS011;70451;51.226;6.412;2023-07-28T13:53:51;2.00;;;0.90;;
80985;SDS011;70451;51.226;6.412;2023-07-28T13:56:06;2.25;;;1.00;;